createdAt,value
2019-02-25T00:11:35.825Z,-0.12
2019-02-25T00:17:55.283Z,-0.42
2019-02-25T00:20:23.798Z,-0.38
2019-02-25T00:22:52.285Z,-0.36
2019-02-25T00:28:03.313Z,-0.46
2019-02-25T00:30:32.195Z,-0.42
2019-02-25T00:33:01.096Z,-0.45
2019-02-25T00:40:53.423Z,-0.81
2019-02-25T00:43:21.921Z,-0.46
2019-02-25T00:48:55.952Z,-0.56
2019-02-25T00:57:59.744Z,-0.40
2019-02-25T01:00:28.510Z,-0.23
2019-02-25T01:02:57.344Z,-0.33
2019-02-25T01:17:55.830Z,-0.17
2019-02-25T01:20:24.468Z,0.01
2019-02-25T01:22:52.967Z,0.20
2019-02-25T01:25:21.459Z,0.01
2019-02-25T01:27:49.972Z,0.03
2019-02-25T01:30:20.213Z,0.01
2019-02-25T01:35:32.245Z,-0.02
2019-02-25T01:38:01.662Z,0.30
2019-02-25T01:42:29.346Z,0.41
2019-02-25T01:43:09.085Z,0.18
2019-02-25T01:45:37.846Z,-0.16
2019-02-25T01:48:07.619Z,-0.24
2019-02-25T01:53:23.607Z,0.01
2019-02-25T01:58:27.791Z,-0.21
2019-02-25T02:00:56.308Z,-0.06
2019-02-25T02:03:25.062Z,0.14
2019-02-25T02:08:29.326Z,-0.08
2019-02-25T02:10:59.071Z,-0.25
2019-02-25T02:13:27.568Z,-0.29
2019-02-25T02:15:57.869Z,-0.39
2019-02-25T02:21:14.138Z,-0.73
2019-02-25T02:23:42.924Z,-0.74
2019-02-25T02:40:27.711Z,-0.31
2019-02-25T02:43:01.309Z,-0.30
2019-02-25T02:48:21.566Z,-0.27
2019-02-25T02:50:52.356Z,-0.52
2019-02-25T02:53:23.285Z,-0.54
2019-02-25T02:58:27.460Z,-0.77
2019-02-25T03:00:56.762Z,-0.75
2019-02-25T03:03:25.278Z,-0.67
2019-02-25T03:08:30.964Z,-0.74
2019-02-25T03:17:45.550Z,-0.42
2019-02-25T03:20:16.459Z,-0.55
2019-02-25T03:22:46.723Z,-0.84
2019-02-25T03:27:50.962Z,-1.04
2019-02-25T03:30:22.934Z,-0.97
2019-02-25T03:32:51.782Z,-1.01
2019-02-25T03:35:20.906Z,-0.96
2019-02-25T03:40:32.565Z,-0.77
2019-02-25T03:46:11.794Z,-1.11
2019-02-25T03:48:41.121Z,-1.06
2019-02-25T03:53:48.331Z,-1.18
2019-02-25T03:56:17.227Z,-1.11
2019-02-25T04:01:25.621Z,-0.94
2019-02-25T04:03:54.354Z,-0.94
2019-02-25T04:06:22.840Z,-0.95
2019-02-25T04:08:51.502Z,-1.09
2019-02-25T04:11:19.992Z,-1.18
2019-02-25T04:13:50.021Z,-0.91
2019-02-25T04:16:19.051Z,-0.95
2019-02-25T04:18:48.718Z,-1.21
2019-02-25T04:21:17.215Z,-1.34
2019-02-25T04:23:45.997Z,-0.98
2019-02-25T04:28:50.184Z,-1.00
2019-02-25T04:31:18.668Z,-1.28
2019-02-25T04:33:47.469Z,-1.30
2019-02-25T04:36:15.952Z,-1.31
2019-02-25T04:38:44.471Z,-1.09
2019-02-25T04:41:12.957Z,-1.03
2019-02-25T04:43:41.474Z,-0.27
2019-02-25T04:46:13.373Z,0.43
2019-02-25T04:48:43.988Z,0.43
2019-02-25T04:51:13.379Z,0.45
2019-02-25T04:53:42.872Z,0.46
2019-02-25T04:56:11.953Z,0.49
2019-02-25T04:58:40.547Z,0.30
2019-02-25T05:01:10.175Z,0.46
2019-02-25T05:03:39.422Z,0.55
2019-02-25T05:06:11.765Z,0.63
2019-02-25T05:08:41.363Z,0.66
2019-02-25T05:11:09.957Z,0.63
2019-02-25T05:13:39.416Z,0.41
2019-02-25T05:16:07.904Z,0.65
2019-02-25T05:18:36.419Z,0.55
2019-02-25T05:21:04.923Z,0.28
2019-02-25T05:23:33.432Z,0.05
2019-02-25T05:26:12.412Z,0.18
2019-02-25T05:28:41.056Z,0.09
2019-02-25T05:31:09.563Z,0.18
2019-02-25T05:33:38.086Z,0.37
2019-02-25T05:36:06.583Z,0.25
2019-02-25T05:38:35.101Z,0.08
2019-02-25T05:41:03.584Z,0.08
2019-02-25T05:43:32.099Z,0.08
2019-02-25T05:46:00.600Z,0.04
2019-02-25T05:48:29.122Z,-0.08
2019-02-25T05:50:57.602Z,-0.02
2019-02-25T05:53:26.118Z,0.33
2019-02-25T05:55:55.098Z,0.75
2019-02-25T05:58:23.626Z,0.85
2019-02-25T06:00:52.121Z,1.38
2019-02-25T06:03:20.638Z,1.47
2019-02-25T06:05:49.122Z,1.40
2019-02-25T06:08:17.641Z,1.47
2019-02-25T06:10:48.145Z,1.52
2019-02-25T06:13:17.805Z,1.51
2019-02-25T06:15:46.307Z,1.50
2019-02-25T06:18:14.966Z,1.53
2019-02-25T06:20:44.178Z,1.40
2019-02-25T06:23:12.767Z,1.17
2019-02-25T06:25:41.299Z,0.76
2019-02-25T06:28:09.791Z,0.85
2019-02-25T06:30:38.301Z,0.80
2019-02-25T06:33:06.864Z,0.92
2019-02-25T06:35:35.377Z,1.02
2019-02-25T06:38:03.863Z,1.11
2019-02-25T06:40:32.360Z,0.99
2019-02-25T06:43:00.835Z,1.02
2019-02-25T06:45:34.264Z,0.84
2019-02-25T06:48:02.748Z,0.78
2019-02-25T06:50:31.329Z,0.73
2019-02-25T06:52:59.813Z,0.89
2019-02-25T06:55:28.319Z,1.10
2019-02-25T06:57:56.863Z,1.20
2019-02-25T07:00:25.440Z,1.24
2019-02-25T07:02:53.923Z,1.56
2019-02-25T07:05:32.501Z,1.91
2019-02-25T07:08:02.618Z,2.27
2019-02-25T07:10:49.122Z,3.05
2019-02-25T07:13:19.239Z,3.05
2019-02-25T07:15:52.289Z,3.34
2019-02-25T07:18:40.277Z,3.82
2019-02-25T07:21:13.063Z,4.39
2019-02-25T07:23:55.240Z,4.39
2019-02-25T07:26:37.480Z,4.55
2019-02-25T07:29:07.602Z,4.53
2019-02-25T07:31:41.150Z,4.45
2019-02-25T07:34:11.657Z,4.71
2019-02-25T07:36:47.708Z,4.90
2019-02-25T07:39:23.330Z,5.21
2019-02-25T07:41:55.923Z,5.29
2019-02-25T07:44:28.476Z,5.38
2019-02-25T07:46:58.598Z,5.37
2019-02-25T07:49:31.701Z,5.63
2019-02-25T07:52:04.530Z,5.71
2019-02-25T07:54:50.649Z,5.64
2019-02-25T07:57:20.777Z,5.78
2019-02-25T07:59:50.937Z,5.88
2019-02-25T08:02:26.884Z,5.96
2019-02-25T08:05:00.032Z,5.94
2019-02-25T08:07:35.898Z,5.99
2019-02-25T08:10:17.066Z,6.14
2019-02-25T08:12:47.196Z,6.28
2019-02-25T08:15:33.265Z,6.15
2019-02-25T08:18:06.144Z,6.15
2019-02-25T08:20:36.292Z,6.18
2019-02-25T08:23:12.240Z,6.23
2019-02-25T08:25:45.098Z,6.25
2019-02-25T08:28:20.635Z,6.44
2019-02-25T08:30:56.550Z,6.61
2019-02-25T08:33:26.671Z,6.62
2019-02-25T08:36:08.330Z,6.91
2019-02-25T08:38:44.252Z,7.08
2019-02-25T08:41:15.501Z,7.31
2019-02-25T08:43:48.377Z,7.43
2019-02-25T08:46:30.127Z,7.81
2019-02-25T08:49:00.325Z,8.10
2019-02-25T08:51:28.840Z,8.64
2019-02-25T08:53:57.328Z,9.71
2019-02-25T08:56:25.878Z,10.23
2019-02-25T08:58:54.494Z,11.08
2019-02-25T09:01:23.099Z,11.19
2019-02-25T09:03:53.245Z,11.82
2019-02-25T09:06:21.784Z,12.44
2019-02-25T09:08:50.263Z,12.87
2019-02-25T09:11:18.857Z,13.05
2019-02-25T09:13:47.354Z,12.94
2019-02-25T09:16:15.889Z,12.40
2019-02-25T09:18:44.392Z,12.75
2019-02-25T09:21:12.911Z,11.95
2019-02-25T09:23:41.396Z,11.37
2019-02-25T09:26:11.847Z,11.30
2019-02-25T09:28:40.121Z,11.75
2019-02-25T09:31:08.633Z,11.99
2019-02-25T09:33:37.118Z,11.30
2019-02-25T09:36:05.634Z,11.12
2019-02-25T09:38:34.128Z,10.78
2019-02-25T09:41:02.647Z,10.41
2019-02-25T09:43:31.141Z,10.09
2019-02-25T09:45:59.648Z,9.97
2019-02-25T09:48:28.142Z,9.99
2019-02-25T09:50:56.639Z,9.88
2019-02-25T09:53:25.125Z,9.83
2019-02-25T09:55:53.652Z,10.25
2019-02-25T09:58:22.143Z,10.03
2019-02-25T10:00:50.661Z,10.02
2019-02-25T10:03:19.145Z,9.95
2019-02-25T10:05:47.657Z,9.69
2019-02-25T10:08:16.146Z,9.90
2019-02-25T10:10:44.665Z,9.92
2019-02-25T10:13:13.154Z,10.03
2019-02-25T10:15:41.642Z,9.94
2019-02-25T10:18:10.149Z,9.97
2019-02-25T10:20:38.633Z,9.98
2019-02-25T10:23:07.157Z,10.21
2019-02-25T10:25:35.648Z,10.45
2019-02-25T10:28:04.179Z,10.55
2019-02-25T10:30:32.668Z,10.61
2019-02-25T10:33:01.186Z,10.59
2019-02-25T10:35:30.449Z,10.48
2019-02-25T10:38:00.966Z,10.45
2019-02-25T10:40:29.176Z,10.54
2019-02-25T10:42:57.763Z,10.49
2019-02-25T10:45:26.260Z,10.51
2019-02-25T10:47:58.461Z,10.83
2019-02-25T10:50:25.125Z,11.01
2019-02-25T10:53:03.002Z,11.00
2019-02-25T10:55:40.379Z,11.05
2019-02-25T10:58:11.067Z,11.05
2019-02-25T11:00:41.589Z,11.09
2019-02-25T11:03:10.704Z,11.10
2019-02-25T11:05:40.355Z,11.04
2019-02-25T11:08:12.033Z,11.29
2019-02-25T11:10:43.957Z,11.39
2019-02-25T11:13:12.612Z,11.58
2019-02-25T11:15:42.361Z,11.58
2019-02-25T11:18:11.339Z,11.38
2019-02-25T11:20:39.899Z,11.55
2019-02-25T11:23:10.038Z,11.72
2019-02-25T11:25:38.649Z,12.16
2019-02-25T11:28:09.306Z,12.46
2019-02-25T11:30:37.590Z,12.40
2019-02-25T11:33:06.114Z,12.57
2019-02-25T11:35:36.516Z,12.75
2019-02-25T11:38:04.910Z,13.15
2019-02-25T11:40:34.292Z,13.06
2019-02-25T11:43:03.654Z,13.79
2019-02-25T11:45:32.325Z,13.58
2019-02-25T11:48:00.835Z,13.10
2019-02-25T11:50:29.346Z,12.89
2019-02-25T11:52:57.878Z,12.83
2019-02-25T11:55:26.382Z,13.53
2019-02-25T11:57:54.899Z,13.58
2019-02-25T12:00:27.258Z,13.87
2019-02-25T12:02:55.849Z,13.52
2019-02-25T12:05:24.356Z,13.69
2019-02-25T12:07:52.879Z,14.36
2019-02-25T12:10:21.370Z,14.35
2019-02-25T12:12:49.899Z,14.23
2019-02-25T12:15:19.738Z,14.07
2019-02-25T12:17:48.260Z,13.88
2019-02-25T12:20:16.763Z,13.54
2019-02-25T12:22:45.287Z,13.74
2019-02-25T12:25:15.831Z,14.01
2019-02-25T12:27:44.380Z,14.38
2019-02-25T12:30:20.906Z,14.95
2019-02-25T12:32:49.431Z,14.90
2019-02-25T12:35:18.007Z,15.03
2019-02-25T12:37:46.656Z,14.38
2019-02-25T12:40:16.392Z,15.35
2019-02-25T12:42:44.983Z,15.98
2019-02-25T12:45:14.930Z,15.96
2019-02-25T12:47:43.511Z,16.65
2019-02-25T12:50:16.563Z,17.03
2019-02-25T12:52:45.952Z,16.49
2019-02-25T12:55:15.587Z,16.57
2019-02-25T12:57:44.165Z,16.77
2019-02-25T13:00:18.056Z,16.57
2019-02-25T13:02:46.587Z,15.42
2019-02-25T13:05:17.191Z,15.22
2019-02-25T13:07:45.708Z,16.47
2019-02-25T13:10:18.312Z,17.04
2019-02-25T13:12:46.909Z,17.19
2019-02-25T13:15:16.770Z,17.10
2019-02-25T13:17:45.293Z,17.90
2019-02-25T13:20:14.634Z,18.66
2019-02-25T13:22:43.166Z,18.48
2019-02-25T13:25:17.185Z,18.38
2019-02-25T13:27:45.746Z,18.69
2019-02-25T13:30:20.425Z,18.67
2019-02-25T13:32:48.956Z,18.95
2019-02-25T13:35:17.458Z,19.80
2019-02-25T13:37:45.984Z,19.92
2019-02-25T13:40:16.477Z,19.81
2019-02-25T13:42:45.175Z,22.02
2019-02-25T13:45:16.068Z,23.16
2019-02-25T13:47:44.610Z,22.19
2019-02-25T13:50:16.155Z,21.50
2019-02-25T13:52:48.331Z,22.62
2019-02-25T13:55:17.978Z,21.12
2019-02-25T13:57:46.565Z,20.49
2019-02-25T14:00:17.276Z,21.54
2019-02-25T14:02:46.114Z,21.82
2019-02-25T14:05:14.752Z,21.90
2019-02-25T14:07:43.515Z,21.03
2019-02-25T14:10:13.286Z,19.59
2019-02-25T14:12:41.806Z,20.15
2019-02-25T14:15:21.855Z,20.88
2019-02-25T14:17:50.443Z,20.67
2019-02-25T14:20:23.070Z,20.05
2019-02-25T14:22:51.840Z,20.33
2019-02-25T14:25:30.450Z,20.23
2019-02-25T14:27:59.212Z,19.49
2019-02-25T14:30:32.645Z,18.30
2019-02-25T14:32:58.699Z,18.66
2019-02-25T14:35:28.761Z,18.30
2019-02-25T14:38:04.274Z,19.37
2019-02-25T14:40:32.371Z,19.91
2019-02-25T14:43:04.012Z,20.45
2019-02-25T14:45:33.982Z,20.72
2019-02-25T14:48:03.141Z,20.07
2019-02-25T14:50:31.900Z,19.25
2019-02-25T14:53:03.217Z,19.61
2019-02-25T14:55:30.943Z,18.62
2019-02-25T14:58:02.128Z,18.58
2019-02-25T15:00:32.699Z,17.73
2019-02-25T15:03:00.365Z,17.84
2019-02-25T15:05:28.940Z,17.18
2019-02-25T15:07:57.766Z,16.41
2019-02-25T15:10:29.036Z,15.70
2019-02-25T15:12:59.025Z,14.08
2019-02-25T15:15:27.205Z,13.66
2019-02-25T15:17:55.713Z,13.21
2019-02-25T15:20:26.123Z,12.98
2019-02-25T15:22:54.588Z,13.09
2019-02-25T15:25:23.362Z,12.61
2019-02-25T15:27:51.908Z,12.63
2019-02-25T15:30:30.388Z,12.51
2019-02-25T15:32:59.203Z,12.39
2019-02-25T15:35:31.445Z,12.08
2019-02-25T15:38:00.473Z,12.16
2019-02-25T15:40:28.711Z,12.12
2019-02-25T15:43:05.990Z,12.26
2019-02-25T15:45:37.804Z,12.14
2019-02-25T15:48:08.265Z,12.06
2019-02-25T15:50:36.933Z,11.79
2019-02-25T15:53:07.311Z,11.53
2019-02-25T15:55:36.280Z,11.44
2019-02-25T15:58:05.589Z,11.52
2019-02-25T16:00:36.729Z,11.31
2019-02-25T16:03:06.648Z,11.00
2019-02-25T16:05:38.201Z,10.90
2019-02-25T16:08:06.629Z,10.92
2019-02-25T16:10:35.219Z,10.81
2019-02-25T16:13:08.262Z,10.76
2019-02-25T16:15:34.170Z,10.69
2019-02-25T16:18:02.718Z,10.58
2019-02-25T16:20:32.628Z,10.45
2019-02-25T16:23:04.734Z,10.22
2019-02-25T16:25:34.518Z,10.31
2019-02-25T16:28:03.114Z,10.03
2019-02-25T16:30:32.616Z,9.77
2019-02-25T16:33:04.319Z,9.86
2019-02-25T16:35:31.355Z,9.66
2019-02-25T16:38:00.343Z,9.53
2019-02-25T16:40:31.437Z,9.49
2019-02-25T16:43:02.755Z,9.62
2019-02-25T16:45:34.702Z,9.43
2019-02-25T16:48:00.923Z,9.36
2019-02-25T16:50:29.671Z,9.27
2019-02-25T16:52:58.213Z,9.22
2019-02-25T16:55:27.778Z,8.94
2019-02-25T16:57:56.593Z,9.00
2019-02-25T17:00:30.085Z,8.91
2019-02-25T17:03:01.826Z,8.88
2019-02-25T17:05:29.645Z,8.83
2019-02-25T17:07:58.179Z,8.68
2019-02-25T17:10:29.155Z,8.71
2019-02-25T17:12:57.221Z,8.56
2019-02-25T17:15:26.921Z,8.53
2019-02-25T17:17:58.428Z,8.60
2019-02-25T17:20:27.791Z,8.48
2019-02-25T17:22:56.116Z,8.45
2019-02-25T17:25:26.915Z,8.35
2019-02-25T17:27:55.037Z,8.24
2019-02-25T17:30:25.072Z,8.33
2019-02-25T17:32:53.630Z,8.33
2019-02-25T17:35:25.809Z,8.02
2019-02-25T17:37:55.510Z,8.01
2019-02-25T17:40:23.721Z,7.95
2019-02-25T17:42:54.042Z,7.98
2019-02-25T17:45:25.060Z,7.64
2019-02-25T17:47:58.340Z,7.53
2019-02-25T17:50:25.079Z,7.63
2019-02-25T17:52:53.640Z,7.40
2019-02-25T17:55:25.366Z,7.45
2019-02-25T17:57:56.355Z,7.36
2019-02-25T18:00:27.702Z,7.45
2019-02-25T18:02:57.165Z,7.36
2019-02-25T18:05:26.565Z,6.93
2019-02-25T18:07:55.055Z,6.87
2019-02-25T18:10:25.228Z,6.85
2019-02-25T18:12:54.474Z,6.65
2019-02-25T18:15:32.596Z,6.54
2019-02-25T18:18:01.158Z,6.54
2019-02-25T18:20:29.884Z,6.57
2019-02-25T18:22:58.743Z,6.69
2019-02-25T18:25:27.403Z,6.81
2019-02-25T18:27:55.964Z,6.78
2019-02-25T18:30:27.298Z,6.69
2019-02-25T18:32:58.332Z,6.54
2019-02-25T18:35:26.787Z,6.40
2019-02-25T18:37:55.626Z,6.23
2019-02-25T18:40:25.351Z,6.07
2019-02-25T18:42:58.050Z,6.04
2019-02-25T18:45:25.506Z,5.96
2019-02-25T18:47:54.117Z,5.72
2019-02-25T18:50:24.724Z,5.92
2019-02-25T18:52:56.720Z,5.95
2019-02-25T18:55:29.299Z,6.03
2019-02-25T18:57:58.038Z,6.23
2019-02-25T19:00:36.387Z,6.32
2019-02-25T19:03:06.225Z,6.25
2019-02-25T19:05:34.872Z,6.10
2019-02-25T19:08:22.875Z,5.95
2019-02-25T19:10:53.178Z,5.93
2019-02-25T19:13:27.681Z,6.14
2019-02-25T19:15:57.099Z,6.29
2019-02-25T19:18:26.569Z,6.25
2019-02-25T19:20:55.228Z,6.36
2019-02-25T19:23:24.228Z,6.43
2019-02-25T19:25:52.839Z,6.16
2019-02-25T19:28:23.846Z,5.91
2019-02-25T19:30:51.877Z,6.01
2019-02-25T19:33:21.191Z,5.96
2019-02-25T19:35:56.679Z,5.96
2019-02-25T19:38:20.646Z,6.13
2019-02-25T19:40:52.518Z,6.11
2019-02-25T19:43:19.683Z,6.27
2019-02-25T19:45:48.338Z,6.29
2019-02-25T19:48:17.003Z,6.36
2019-02-25T19:50:51.164Z,6.27
2019-02-25T19:53:19.454Z,6.22
2019-02-25T19:55:48.532Z,6.03
2019-02-25T19:58:16.431Z,5.91
2019-02-25T20:00:44.964Z,5.81
2019-02-25T20:03:13.588Z,5.84
2019-02-25T20:05:44.284Z,5.77
2019-02-25T20:08:12.806Z,5.71
2019-02-25T20:10:41.398Z,5.71
2019-02-25T20:13:09.900Z,5.72
2019-02-25T20:15:41.595Z,5.58
2019-02-25T20:18:09.490Z,5.72
2019-02-25T20:20:41.110Z,5.63
2019-02-25T20:23:09.251Z,5.59
2019-02-25T20:25:37.769Z,5.55
2019-02-25T20:28:06.542Z,5.42
2019-02-25T20:30:35.295Z,5.39
2019-02-25T20:33:06.351Z,5.48
2019-02-25T20:35:34.391Z,5.43
2019-02-25T20:38:05.168Z,5.55
2019-02-25T20:40:34.225Z,5.53
2019-02-25T20:43:03.347Z,5.51
2019-02-25T20:45:35.475Z,5.42
2019-02-25T20:48:04.316Z,5.38
2019-02-25T20:50:32.885Z,5.34
2019-02-25T20:53:05.531Z,5.42
2019-02-25T20:55:33.901Z,5.59
2019-02-25T20:58:02.109Z,5.50
2019-02-25T21:00:30.585Z,5.46
2019-02-25T21:02:59.221Z,5.39
2019-02-25T21:05:27.990Z,5.15
2019-02-25T21:07:57.945Z,5.09
2019-02-25T21:10:30.594Z,5.23
2019-02-25T21:13:01.429Z,5.25
2019-02-25T21:15:29.289Z,5.39
2019-02-25T21:17:59.925Z,5.45
2019-02-25T21:20:31.449Z,5.37
2019-02-25T21:23:03.546Z,5.11
2019-02-25T21:25:32.192Z,5.28
2019-02-25T21:28:04.220Z,5.29
2019-02-25T21:30:32.321Z,5.21
2019-02-25T21:33:02.742Z,5.31
2019-02-25T21:35:35.416Z,5.21
2019-02-25T21:38:03.033Z,5.38
2019-02-25T21:40:32.541Z,5.30
2019-02-25T21:43:01.564Z,5.24
2019-02-25T21:45:32.338Z,5.37
2019-02-25T21:48:01.879Z,5.15
2019-02-25T21:50:34.033Z,5.04
2019-02-25T21:53:04.904Z,5.22
2019-02-25T21:55:34.792Z,5.25
2019-02-25T21:58:04.944Z,5.40
2019-02-25T22:00:35.844Z,5.44
2019-02-25T22:03:04.508Z,4.91
2019-02-25T22:05:34.398Z,4.74
2019-02-25T22:08:04.087Z,5.03
2019-02-25T22:10:36.316Z,5.23
2019-02-25T22:13:06.560Z,5.17
2019-02-25T22:15:34.410Z,4.86
2019-02-25T22:18:06.134Z,5.00
2019-02-25T22:20:37.609Z,5.08
2019-02-25T22:23:05.843Z,4.93
2019-02-25T22:25:35.017Z,5.00
2019-02-25T22:28:05.255Z,5.12
2019-02-25T22:30:33.828Z,5.28
2019-02-25T22:33:04.473Z,4.96
2019-02-25T22:35:35.535Z,5.06
2019-02-25T22:38:03.213Z,4.96
2019-02-25T22:40:32.697Z,4.88
2019-02-25T22:43:01.957Z,4.88
2019-02-25T22:45:31.464Z,4.85
2019-02-25T22:48:00.708Z,4.85
2019-02-25T22:50:31.058Z,4.74
2019-02-25T22:53:01.644Z,4.54
2019-02-25T22:55:29.695Z,4.39
2019-02-25T22:57:58.222Z,4.13
2019-02-25T23:00:49.086Z,4.06
2019-02-25T23:03:20.145Z,3.88
2019-02-25T23:05:50.081Z,3.89
2019-02-25T23:08:20.756Z,3.92
2019-02-25T23:10:49.368Z,4.09
2019-02-25T23:13:22.664Z,4.12
2019-02-25T23:16:07.853Z,3.98
2019-02-25T23:18:28.203Z,3.62
2019-02-25T23:20:59.759Z,3.35
2019-02-25T23:23:28.689Z,3.34
2019-02-25T23:25:58.461Z,3.06
2019-02-25T23:28:28.560Z,2.94
2019-02-25T23:30:58.245Z,2.89
2019-02-25T23:33:26.840Z,2.95
2019-02-25T23:35:56.002Z,3.29
2019-02-25T23:38:24.629Z,3.17
2019-02-25T23:40:53.193Z,3.46
2019-02-25T23:43:21.729Z,3.55
2019-02-25T23:45:50.223Z,3.74
2019-02-25T23:48:18.737Z,3.86
2019-02-25T23:50:48.060Z,3.91
2019-02-25T23:53:17.474Z,4.03
2019-02-25T23:55:47.325Z,4.14
2019-02-25T23:58:17.219Z,4.33
